createdAt,value
2022-10-05T00:00:48.851Z,65.81
2022-10-05T00:03:15.675Z,65.46
2022-10-05T00:05:45.345Z,65.26
2022-10-05T00:08:17.774Z,64.43
2022-10-05T00:10:46.071Z,64.10
2022-10-05T00:13:21.606Z,65.02
2022-10-05T00:15:50.042Z,64.97
2022-10-05T00:18:19.355Z,64.67
2022-10-05T00:20:47.770Z,65.06
2022-10-05T00:23:19.863Z,65.06
2022-10-05T00:25:46.913Z,64.76
2022-10-05T00:28:29.554Z,64.66
2022-10-05T00:30:58.087Z,63.91
2022-10-05T00:33:25.847Z,63.81
2022-10-05T00:35:52.836Z,64.08
2022-10-05T00:38:19.593Z,64.14
2022-10-05T00:40:59.115Z,63.99
2022-10-05T00:43:40.862Z,64.29
2022-10-05T00:46:30.744Z,64.58
2022-10-05T00:49:42.488Z,65.09
2022-10-05T00:52:22.609Z,64.48
2022-10-05T00:55:12.501Z,65.04
2022-10-05T00:58:08.506Z,65.35
2022-10-05T01:00:46.990Z,65.49
2022-10-05T01:03:43.055Z,65.41
2022-10-05T01:06:39.518Z,65.80
2022-10-05T01:09:09.185Z,66.07
2022-10-05T01:11:43.838Z,65.79
2022-10-05T01:14:43.855Z,65.82
2022-10-05T01:17:24.380Z,65.05
2022-10-05T01:20:06.484Z,64.95
2022-10-05T01:22:33.337Z,65.53
2022-10-05T01:25:51.283Z,65.49
2022-10-05T01:28:28.264Z,65.38
2022-10-05T01:31:09.696Z,65.44
2022-10-05T01:34:11.574Z,65.90
2022-10-05T01:36:52.577Z,66.52
2022-10-05T01:39:46.974Z,66.21
2022-10-05T01:42:22.085Z,65.93
2022-10-05T01:44:53.589Z,65.91
2022-10-05T01:47:44.066Z,65.83
2022-10-05T01:50:23.705Z,66.04
2022-10-05T01:52:53.458Z,67.25
2022-10-05T01:55:26.088Z,67.06
2022-10-05T01:58:23.529Z,66.94
2022-10-05T02:01:03.426Z,67.19
2022-10-05T02:03:49.705Z,67.41
2022-10-05T02:06:41.944Z,67.73
2022-10-05T02:09:17.565Z,67.95
2022-10-05T02:11:50.286Z,68.50
2022-10-05T02:14:23.870Z,68.08
2022-10-05T02:16:53.922Z,67.61
2022-10-05T02:19:35.560Z,67.70
2022-10-05T02:22:08.678Z,68.11
2022-10-05T02:24:40.750Z,68.27
2022-10-05T02:27:10.947Z,68.36
2022-10-05T02:29:42.931Z,68.61
2022-10-05T02:32:27.408Z,67.79
2022-10-05T02:35:01.720Z,68.40
2022-10-05T02:37:40.716Z,68.97
2022-10-05T02:40:39.804Z,68.52
2022-10-05T02:43:32.717Z,69.17
2022-10-05T02:46:02.565Z,69.27
2022-10-05T02:48:56.808Z,69.50
2022-10-05T02:51:28.613Z,69.45
2022-10-05T02:53:58.132Z,69.71
2022-10-05T02:56:49.545Z,70.46
2022-10-05T02:59:34.438Z,70.56
2022-10-05T03:02:07.287Z,70.53
2022-10-05T03:04:46.840Z,70.14
2022-10-05T03:07:15.847Z,70.65
2022-10-05T03:09:51.032Z,70.76
2022-10-05T03:12:49.303Z,70.29
2022-10-05T03:15:18.802Z,70.17
2022-10-05T03:18:03.821Z,70.35
2022-10-05T03:20:55.178Z,70.45
2022-10-05T03:23:53.244Z,69.64
2022-10-05T03:26:48.882Z,69.44
2022-10-05T03:29:23.508Z,69.04
2022-10-05T03:32:32.528Z,69.02
2022-10-05T03:35:27.928Z,68.53
2022-10-05T03:38:20.863Z,68.46
2022-10-05T03:40:53.363Z,68.39
2022-10-05T03:43:25.884Z,67.77
2022-10-05T03:46:19.635Z,68.27
2022-10-05T03:49:04.598Z,68.91
2022-10-05T03:51:32.562Z,68.98
2022-10-05T03:54:35.298Z,67.81
2022-10-05T03:57:07.143Z,67.74
2022-10-05T04:00:12.500Z,67.50
2022-10-05T04:02:50.303Z,67.45
2022-10-05T04:05:25.098Z,67.22
2022-10-05T04:08:10.423Z,66.61
2022-10-05T04:10:46.318Z,66.89
2022-10-05T04:13:25.819Z,66.98
2022-10-05T04:16:14.585Z,67.26
2022-10-05T04:18:44.301Z,66.91
2022-10-05T04:21:23.770Z,67.28
2022-10-05T04:24:01.848Z,66.89
2022-10-05T04:26:45.848Z,66.48
2022-10-05T04:29:45.109Z,65.29
2022-10-05T04:32:37.257Z,65.79
2022-10-05T04:35:36.969Z,65.15
2022-10-05T04:38:26.560Z,65.23
2022-10-05T04:41:11.701Z,65.01
2022-10-05T04:44:01.402Z,64.89
2022-10-05T04:46:28.293Z,64.82
2022-10-05T04:49:07.113Z,65.13
2022-10-05T04:51:52.614Z,64.82
2022-10-05T04:54:40.051Z,64.72
2022-10-05T04:57:34.305Z,64.56
2022-10-05T05:00:26.292Z,64.65
2022-10-05T05:02:53.033Z,65.00
2022-10-05T05:06:15.782Z,64.85
2022-10-05T05:09:11.731Z,65.07
2022-10-05T05:12:21.772Z,65.59
2022-10-05T05:14:57.440Z,65.87
2022-10-05T05:17:36.289Z,66.38
2022-10-05T05:20:23.971Z,66.29
2022-10-05T05:22:59.147Z,66.79
2022-10-05T05:25:43.313Z,66.05
2022-10-05T05:28:30.605Z,65.43
2022-10-05T05:31:19.786Z,65.20
2022-10-05T05:34:28.281Z,64.91
2022-10-05T05:37:05.204Z,63.70
2022-10-05T05:39:49.909Z,63.14
2022-10-05T05:42:37.524Z,64.05
2022-10-05T05:45:23.797Z,63.07
2022-10-05T05:47:57.238Z,62.93
2022-10-05T05:50:55.612Z,61.78
2022-10-05T05:53:44.646Z,61.54
2022-10-05T05:56:12.816Z,61.20
2022-10-05T05:58:42.188Z,62.09
2022-10-05T06:01:44.183Z,61.79
2022-10-05T06:04:17.536Z,61.88
2022-10-05T06:06:50.258Z,62.42
2022-10-05T06:09:30.965Z,62.05
2022-10-05T06:12:19.242Z,62.06
2022-10-05T06:15:12.474Z,62.34
2022-10-05T06:17:52.997Z,62.20
2022-10-05T06:20:30.483Z,62.74
2022-10-05T06:23:03.460Z,62.69
2022-10-05T06:25:45.085Z,62.46
2022-10-05T06:28:14.227Z,62.90
2022-10-05T06:30:48.953Z,63.57
2022-10-05T06:33:47.899Z,63.70
2022-10-05T06:36:48.830Z,64.20
2022-10-05T06:39:15.973Z,62.80
2022-10-05T06:41:58.989Z,62.93
2022-10-05T06:44:49.259Z,61.69
2022-10-05T06:47:46.535Z,60.89
2022-10-05T06:50:13.274Z,60.11
2022-10-05T06:52:49.251Z,60.52
2022-10-05T06:55:21.740Z,60.37
2022-10-05T06:58:19.417Z,60.13
2022-10-05T07:01:03.210Z,60.86
2022-10-05T07:03:38.671Z,61.50
2022-10-05T07:06:14.329Z,60.75
2022-10-05T07:08:47.025Z,61.25
2022-10-05T07:11:40.396Z,61.14
2022-10-05T07:14:07.090Z,61.06
2022-10-05T07:16:42.869Z,60.75
2022-10-05T07:19:27.848Z,61.05
2022-10-05T07:22:30.500Z,59.75
2022-10-05T07:25:19.187Z,58.59
2022-10-05T07:28:00.644Z,58.65
2022-10-05T07:30:28.531Z,59.06
2022-10-05T07:33:44.531Z,59.10
2022-10-05T07:36:19.990Z,58.66
2022-10-05T07:39:01.629Z,58.29
2022-10-05T07:41:41.388Z,58.46
2022-10-05T07:44:26.751Z,59.04
2022-10-05T07:47:07.160Z,59.30
2022-10-05T07:49:51.490Z,59.04
2022-10-05T07:52:46.978Z,59.65
2022-10-05T07:55:19.572Z,58.85
2022-10-05T07:57:56.341Z,58.83
2022-10-05T08:00:26.610Z,58.29
2022-10-05T08:03:03.933Z,57.15
2022-10-05T08:05:37.340Z,57.33
2022-10-05T08:08:14.274Z,56.67
2022-10-05T08:10:54.873Z,56.78
2022-10-05T08:13:45.439Z,56.34
2022-10-05T08:16:13.054Z,56.44
2022-10-05T08:18:42.715Z,57.09
2022-10-05T08:21:10.114Z,57.05
2022-10-05T08:23:56.829Z,56.87
2022-10-05T08:26:45.501Z,57.03
2022-10-05T08:29:40.877Z,56.21
2022-10-05T08:32:24.996Z,56.49
2022-10-05T08:34:58.519Z,56.06
2022-10-05T08:37:29.814Z,56.07
2022-10-05T08:40:33.872Z,55.87
2022-10-05T08:43:06.483Z,55.34
2022-10-05T08:45:51.740Z,55.25
2022-10-05T08:48:52.280Z,54.75
2022-10-05T08:51:33.466Z,54.96
2022-10-05T08:54:03.148Z,54.61
2022-10-05T08:56:33.502Z,54.08
2022-10-05T08:59:26.349Z,53.26
2022-10-05T09:02:15.080Z,52.19
2022-10-05T09:04:47.934Z,52.20
2022-10-05T09:07:28.821Z,51.22
2022-10-05T09:10:37.762Z,51.34
2022-10-05T09:13:17.534Z,49.95
2022-10-05T09:16:04.701Z,48.68
2022-10-05T09:18:50.157Z,50.52
2022-10-05T09:21:39.431Z,51.07
2022-10-05T09:24:15.018Z,51.03
2022-10-05T09:26:59.243Z,50.38
2022-10-05T09:30:00.141Z,48.31
2022-10-05T09:32:52.777Z,47.96
2022-10-05T09:35:31.475Z,48.42
2022-10-05T09:38:07.241Z,47.48
2022-10-05T09:41:07.318Z,47.44
2022-10-05T09:43:55.349Z,47.32
2022-10-05T09:46:48.358Z,47.39
2022-10-05T09:49:49.164Z,46.76
2022-10-05T09:52:25.150Z,45.85
2022-10-05T09:55:13.071Z,45.35
2022-10-05T09:57:53.145Z,43.36
2022-10-05T10:00:38.465Z,43.15
2022-10-05T10:03:25.790Z,42.43
2022-10-05T10:06:25.157Z,44.69
2022-10-05T10:09:00.906Z,44.31
2022-10-05T10:11:44.529Z,44.28
2022-10-05T10:14:23.968Z,43.48
2022-10-05T10:16:58.506Z,42.97
2022-10-05T10:19:27.944Z,43.23
2022-10-05T10:22:06.437Z,42.39
2022-10-05T10:24:58.460Z,42.02
2022-10-05T10:28:08.524Z,44.05
2022-10-05T10:31:13.134Z,45.12
2022-10-05T10:33:58.189Z,45.29
2022-10-05T10:37:13.133Z,45.33
2022-10-05T10:40:04.005Z,44.60
2022-10-05T10:42:58.272Z,44.24
2022-10-05T10:45:47.884Z,45.27
2022-10-05T10:48:30.081Z,44.37
2022-10-05T10:51:08.771Z,43.43
2022-10-05T10:54:00.263Z,42.94
2022-10-05T10:57:02.933Z,42.89
2022-10-05T10:59:47.745Z,43.70
2022-10-05T11:02:32.988Z,44.00
2022-10-05T11:05:00.181Z,42.58
2022-10-05T11:07:35.941Z,41.54
2022-10-05T11:10:23.002Z,41.71
2022-10-05T11:13:35.521Z,40.67
2022-10-05T11:16:21.169Z,40.27
2022-10-05T11:19:13.725Z,41.15
2022-10-05T11:22:07.123Z,42.04
2022-10-05T11:24:43.990Z,42.85
2022-10-05T11:27:48.240Z,42.72
2022-10-05T11:30:30.243Z,41.65
2022-10-05T11:32:56.949Z,43.27
2022-10-05T11:35:49.757Z,43.14
2022-10-05T11:38:46.787Z,41.42
2022-10-05T11:41:34.370Z,40.91
2022-10-05T11:44:27.294Z,40.76
2022-10-05T11:47:17.991Z,40.76
2022-10-05T11:50:14.312Z,41.19
2022-10-05T11:52:48.245Z,41.02
2022-10-05T11:55:17.928Z,40.47
2022-10-05T11:57:56.068Z,40.31
2022-10-05T12:00:31.626Z,40.23
2022-10-05T12:03:22.468Z,40.47
2022-10-05T12:06:04.406Z,40.55
2022-10-05T12:08:54.110Z,41.55
2022-10-05T12:11:29.812Z,42.19
2022-10-05T12:14:33.245Z,42.20
2022-10-05T12:17:15.591Z,42.30
2022-10-05T12:19:48.241Z,42.89
2022-10-05T12:22:47.001Z,42.90
2022-10-05T12:25:25.510Z,43.17
2022-10-05T12:27:56.806Z,43.21
2022-10-05T12:30:52.404Z,42.59
2022-10-05T12:33:27.660Z,42.88
2022-10-05T12:36:01.547Z,43.33
2022-10-05T12:38:53.052Z,43.09
2022-10-05T12:41:25.538Z,43.36
2022-10-05T12:44:15.621Z,43.21
2022-10-05T12:46:59.574Z,43.01
2022-10-05T12:49:56.213Z,42.86
2022-10-05T12:52:32.996Z,42.97
2022-10-05T12:55:02.640Z,42.21
2022-10-05T12:57:41.332Z,41.51
2022-10-05T13:00:17.848Z,41.25
2022-10-05T13:03:02.057Z,41.17
2022-10-05T13:05:52.770Z,41.55
2022-10-05T13:08:39.775Z,42.48
2022-10-05T13:11:17.659Z,42.10
2022-10-05T13:14:18.521Z,42.40
2022-10-05T13:17:00.178Z,42.78
2022-10-05T13:19:41.514Z,42.98
2022-10-05T13:22:56.138Z,43.70
2022-10-05T13:25:31.360Z,44.25
2022-10-05T13:28:21.551Z,44.18
2022-10-05T13:31:21.953Z,43.93
2022-10-05T13:34:07.189Z,44.33
2022-10-05T13:36:52.019Z,44.31
2022-10-05T13:39:39.872Z,44.14
2022-10-05T13:42:17.989Z,43.97
2022-10-05T13:44:55.708Z,43.69
2022-10-05T13:47:42.199Z,43.96
2022-10-05T13:50:22.653Z,43.96
2022-10-05T13:53:22.266Z,43.48
2022-10-05T13:56:07.656Z,43.69
2022-10-05T13:58:51.601Z,44.03
2022-10-05T14:01:53.111Z,43.87
2022-10-05T14:04:44.535Z,43.96
2022-10-05T14:07:30.537Z,44.79
2022-10-05T14:09:58.960Z,45.11
2022-10-05T14:12:27.353Z,45.06
2022-10-05T14:14:56.904Z,45.14
2022-10-05T14:17:42.173Z,45.08
2022-10-05T14:20:21.447Z,45.04
2022-10-05T14:22:58.077Z,45.09
2022-10-05T14:25:25.368Z,45.21
2022-10-05T14:28:11.887Z,45.25
2022-10-05T14:30:38.905Z,45.50
2022-10-05T14:33:05.908Z,46.07
2022-10-05T14:35:52.363Z,46.69
2022-10-05T14:38:57.655Z,46.58
2022-10-05T14:41:27.834Z,46.36
2022-10-05T14:44:12.904Z,45.94
2022-10-05T14:46:53.156Z,45.59
2022-10-05T14:49:36.196Z,45.53
2022-10-05T15:32:14.250Z,47.67
2022-10-05T15:35:23.574Z,47.69
2022-10-05T15:38:04.864Z,47.93
2022-10-05T15:40:51.865Z,47.80
2022-10-05T15:43:23.020Z,48.10
2022-10-05T15:45:54.030Z,48.42
2022-10-05T15:48:43.804Z,49.11
2022-10-05T15:51:22.664Z,48.93
2022-10-05T15:53:55.237Z,48.91
2022-10-05T15:56:38.587Z,49.23
2022-10-05T15:59:07.983Z,49.29
2022-10-05T16:01:34.787Z,49.45
2022-10-05T16:04:12.381Z,49.14
2022-10-05T16:06:53.947Z,50.27
2022-10-05T16:09:38.794Z,50.41
2022-10-05T16:12:25.747Z,50.85
2022-10-05T16:15:14.619Z,50.99
2022-10-05T16:17:56.643Z,51.10
2022-10-05T16:20:25.540Z,50.80
2022-10-05T16:23:12.167Z,51.26
2022-10-05T16:26:03.641Z,51.48
2022-10-05T16:29:05.424Z,51.66
2022-10-05T16:31:34.984Z,51.67
2022-10-05T16:34:34.480Z,51.67
2022-10-05T16:37:11.527Z,51.76
2022-10-05T16:39:54.258Z,52.07
2022-10-05T16:42:42.420Z,52.16
2022-10-05T16:45:18.018Z,52.51
2022-10-05T16:48:31.197Z,52.88
2022-10-05T16:51:21.486Z,53.80
2022-10-05T16:54:03.447Z,54.55
2022-10-05T16:56:41.849Z,54.23
2022-10-05T16:59:47.423Z,53.92
2022-10-05T17:02:28.316Z,54.01
2022-10-05T17:04:58.313Z,54.39
2022-10-05T17:07:56.295Z,54.25
2022-10-05T17:10:35.409Z,54.14
2022-10-05T17:13:08.073Z,54.35
2022-10-05T17:15:57.959Z,54.59
2022-10-05T17:18:50.526Z,54.47
2022-10-05T17:21:30.679Z,55.29
2022-10-05T17:24:17.631Z,55.50
2022-10-05T17:26:57.620Z,55.62
2022-10-05T17:29:53.659Z,56.09
2022-10-05T17:32:23.144Z,56.03
2022-10-05T17:35:18.155Z,56.31
2022-10-05T17:38:12.712Z,56.21
2022-10-05T17:40:40.922Z,56.38
2022-10-05T17:43:25.385Z,56.40
2022-10-05T17:46:12.174Z,56.71
2022-10-05T17:48:54.200Z,57.08
2022-10-05T17:51:29.919Z,57.49
2022-10-05T17:53:56.794Z,57.81
2022-10-05T17:56:23.745Z,57.91
2022-10-05T17:58:50.506Z,58.55
2022-10-05T18:01:39.827Z,59.15
2022-10-05T18:04:15.501Z,59.93
2022-10-05T18:06:59.452Z,59.54
2022-10-05T18:09:26.163Z,59.49
2022-10-05T18:11:55.850Z,59.59
2022-10-05T18:14:25.884Z,59.87
2022-10-05T18:17:13.340Z,60.28
2022-10-05T18:19:40.305Z,59.92
2022-10-05T18:22:30.352Z,60.23
2022-10-05T18:25:03.351Z,60.15
2022-10-05T18:27:53.944Z,60.63
2022-10-05T18:30:25.632Z,60.39
2022-10-05T18:33:17.048Z,60.15
2022-10-05T18:35:53.069Z,59.83
2022-10-05T18:38:47.622Z,60.69
2022-10-05T18:41:55.156Z,61.32
2022-10-05T18:44:34.261Z,61.97
2022-10-05T18:47:10.027Z,61.99
2022-10-05T18:49:59.962Z,62.37
2022-10-05T18:53:00.612Z,62.79
2022-10-05T18:55:35.953Z,63.02
2022-10-05T18:58:26.676Z,62.99
2022-10-05T19:01:12.503Z,62.87
2022-10-05T19:04:11.908Z,62.69
2022-10-05T19:07:01.620Z,62.71
2022-10-05T19:09:43.154Z,62.88
2022-10-05T19:12:28.721Z,62.43
2022-10-05T19:15:20.438Z,62.62
2022-10-05T19:17:47.163Z,62.57
2022-10-05T19:20:30.463Z,63.14
2022-10-05T19:23:06.089Z,62.05
2022-10-05T19:25:37.555Z,62.03
2022-10-05T19:28:31.012Z,62.42
2022-10-05T19:31:15.570Z,62.33
2022-10-05T19:34:07.070Z,62.52
2022-10-05T19:36:41.514Z,62.73
2022-10-05T19:39:32.906Z,62.22
2022-10-05T19:42:16.353Z,62.28
2022-10-05T19:44:45.992Z,62.50
2022-10-05T19:47:26.134Z,63.10
2022-10-05T19:49:52.790Z,63.15
2022-10-05T19:52:28.907Z,63.20
2022-10-05T19:55:13.486Z,63.26
2022-10-05T19:57:52.197Z,63.28
2022-10-05T20:00:31.722Z,63.28
2022-10-05T20:03:15.311Z,63.67
2022-10-05T20:05:42.106Z,63.47
2022-10-05T20:08:18.181Z,63.67
2022-10-05T20:11:03.257Z,64.22
2022-10-05T20:13:30.556Z,64.37
2022-10-05T20:16:12.615Z,64.36
2022-10-05T20:18:45.162Z,64.20
2022-10-05T20:21:47.463Z,64.06
2022-10-05T20:24:24.653Z,64.20
2022-10-05T20:26:59.765Z,64.00
2022-10-05T20:29:26.722Z,64.77
2022-10-05T20:31:53.990Z,64.19
2022-10-05T20:34:21.273Z,64.21
2022-10-05T20:36:49.721Z,64.38
2022-10-05T20:39:17.789Z,64.06
2022-10-05T20:41:47.961Z,63.59
2022-10-05T20:44:16.155Z,63.45
2022-10-05T20:46:42.990Z,63.49
2022-10-05T20:49:10.275Z,63.93
2022-10-05T20:51:38.890Z,64.49
2022-10-05T20:54:07.146Z,64.96
2022-10-05T20:56:34.319Z,65.33
2022-10-05T20:59:01.216Z,65.50
2022-10-05T21:01:28.119Z,65.96
2022-10-05T21:03:54.983Z,65.64
2022-10-05T21:06:22.112Z,65.49
2022-10-05T21:08:49.245Z,65.94
2022-10-05T21:11:15.968Z,66.11
2022-10-05T21:13:46.342Z,65.98
2022-10-05T21:16:17.358Z,66.44
2022-10-05T21:18:49.046Z,66.85
2022-10-05T21:21:19.311Z,67.06
2022-10-05T21:23:47.608Z,66.98
2022-10-05T21:26:16.539Z,66.79
2022-10-05T21:28:43.271Z,66.91
2022-10-05T21:31:10.640Z,67.34
2022-10-05T21:33:38.501Z,67.71
2022-10-05T21:36:05.471Z,68.01
2022-10-05T21:38:32.471Z,68.14
2022-10-05T21:40:59.391Z,68.51
2022-10-05T21:43:26.441Z,68.55
2022-10-05T21:45:55.540Z,68.74
2022-10-05T21:48:22.704Z,68.64
2022-10-05T21:50:49.531Z,69.25
2022-10-05T21:53:18.598Z,69.00
2022-10-05T21:55:49.070Z,69.02
2022-10-05T21:58:17.068Z,69.07
2022-10-05T22:00:44.889Z,69.49
2022-10-05T22:03:11.669Z,70.01
2022-10-05T22:05:38.549Z,70.25
2022-10-05T22:08:05.813Z,70.02
2022-10-05T22:10:33.479Z,70.31
2022-10-05T22:13:01.910Z,70.33
2022-10-05T22:15:32.192Z,70.52
2022-10-05T22:17:59.543Z,70.51
2022-10-05T22:20:27.238Z,69.94
2022-10-05T22:22:54.252Z,70.18
2022-10-05T22:25:21.846Z,70.40
2022-10-05T22:27:49.726Z,70.50
2022-10-05T22:30:18.078Z,70.24
2022-10-05T22:32:44.860Z,70.57
2022-10-05T22:35:12.022Z,70.96
2022-10-05T22:37:39.000Z,71.17
2022-10-05T22:40:07.697Z,71.05
2022-10-05T22:42:34.846Z,71.39
2022-10-05T22:45:01.733Z,71.02
2022-10-05T22:47:28.644Z,71.81
2022-10-05T22:49:55.454Z,71.79
2022-10-05T22:52:22.304Z,71.06
2022-10-05T22:54:49.135Z,71.25
2022-10-05T22:57:15.891Z,71.86
2022-10-05T22:59:42.723Z,71.44
2022-10-05T23:02:09.957Z,71.84
2022-10-05T23:04:36.727Z,72.15
2022-10-05T23:07:03.659Z,72.35
2022-10-05T23:09:30.720Z,71.77
2022-10-05T23:11:57.510Z,71.88
2022-10-05T23:14:24.619Z,71.40
2022-10-05T23:16:51.376Z,71.83
2022-10-05T23:19:18.314Z,72.00
2022-10-05T23:21:45.259Z,71.89
2022-10-05T23:24:11.985Z,72.06
2022-10-05T23:26:38.737Z,72.16
2022-10-05T23:29:05.719Z,71.64
2022-10-05T23:31:32.589Z,71.87
2022-10-05T23:33:59.359Z,72.04
2022-10-05T23:36:28.805Z,71.87
2022-10-05T23:38:56.150Z,71.88
2022-10-05T23:41:22.857Z,72.02
2022-10-05T23:43:50.119Z,71.52
2022-10-05T23:46:17.799Z,71.66
2022-10-05T23:48:44.605Z,71.52
2022-10-05T23:51:13.684Z,71.30
2022-10-05T23:53:40.544Z,71.50
2022-10-05T23:56:07.589Z,71.10
2022-10-05T23:58:34.406Z,70.76
